Inspiration — C6FM5 — position and weather

sailwx.info

Track history (hours):
 
Tides and Currents Weather Stations Pressure Air Temp Water Temp Dewpoint Dewpoint Depression Visibility Wind Speed Wind Dir Waves Ship Positions

Inspiration

Operator: Carnival Cruise Lines

Last reported at 2018-Feb-21 13:35 UTC. Time now 2018-Feb-21 17:41 UTC.
Position N 33°11' W 118°16'.

Type: Ship. MMSI: 309484000.

Date/timePositionNaut miles runAvg speedWind from/ knotsBaromVisibWave heightAir tempDewpointWater temp
2018-Feb-21 13:35N 33°11' W 118°16'18 7.3
2018-Feb-21 11:08N 32°55' W 118°05'1 7.5
2018-Feb-21 10:56N 32°54' W 118°04'7 7.2
2018-Feb-21 10:01N 32°49' W 117°59'1 7.1
2018-Feb-21 09:56N 32°48' W 117°59'4 6.9
2018-Feb-21 09:19N 32°45' W 117°56'2 7.1
2018-Feb-21 09:00N 32°43' W 117°54'3 5.5
2018-Feb-21 08:30N 32°42' W 117°57'3 4.9
2018-Feb-21 07:57N 32°39' W 117°55'3 6.0
2018-Feb-21 07:30N 32°42' W 117°55'3 5.6
2018-Feb-21 07:00N 32°41' W 117°52'3 6.5
2018-Feb-21 06:30N 32°38' W 117°50'3 6.3
2018-Feb-21 06:00N 32°35' W 117°50'3 6.7
2018-Feb-21 05:30N 32°32' W 117°51'50 4.8
2018-Feb-20 19:00N 31°42' W 118°00'35 8.6 340 / 101013.210.8 11.0-0.216.0
2018-Feb-20 14:53N 32°17' W 117°55'3 7.0
2018-Feb-20 14:30N 32°19' W 117°54'4 6.9
2018-Feb-20 13:59N 32°23' W 117°52'3 6.8
2018-Feb-20 13:29N 32°26' W 117°51'3 6.9
2018-Feb-20 13:00N 32°29' W 117°50'3 6.9
2018-Feb-20 12:30N 32°32' W 117°49'3 6.8
2018-Feb-20 12:00N 32°36' W 117°48'6467.0
2018-Feb-20 12:00N 32°30' W 117°48'918.3 010 / 101012.010.8 12.0-2.015.0
2018-Feb-20 11:30N 32°39' W 117°48'4 6.9
2018-Feb-20 10:59N 32°42' W 117°49'3 7.0
2018-Feb-20 10:30N 32°45' W 117°51'3 6.9
2018-Feb-20 10:00N 32°49' W 117°52'4 7.2
2018-Feb-20 09:30N 32°52' W 117°54'4 7.2
2018-Feb-20 09:00N 32°55' W 117°55'4 7.0
2018-Feb-20 08:30N 32°59' W 117°57'3 6.9
2018-Feb-20 08:00N 33°02' W 117°58'3 6.9
2018-Feb-20 07:30N 33°05' W 117°59'4 6.8
2018-Feb-20 06:59N 33°08' W 118°01'3 6.6
2018-Feb-20 06:30N 33°11' W 118°02'3 6.7
2018-Feb-20 06:00N 33°14' W 118°04'3 6.8
2018-Feb-20 05:30N 33°18' W 118°05'8 6.9
2018-Feb-20 04:20N 33°25' W 118°09'2 6.9
2018-Feb-20 04:00N 33°27' W 118°10'10 8.0
2018-Feb-20 02:47N 33°37' W 118°13'310.0
2018-Feb-20 02:30N 33°39' W 118°12'4 8.7
2018-Feb-20 02:00N 33°44' W 118°11'1 2.7
2018-Feb-20 01:30N 33°45' W 118°11'0 0.0
2018-Feb-20 00:59N 33°45' W 118°11'0 0.0
2018-Feb-20 00:29N 33°45' W 118°11'0 0.0
2018-Feb-19 23:59N 33°45' W 118°11'0 0.0
2018-Feb-19 23:29N 33°45' W 118°11'0 0.0
2018-Feb-19 22:58N 33°45' W 118°11'0 0.0
2018-Feb-19 22:28N 33°45' W 118°11'0 0.0
2018-Feb-19 21:58N 33°45' W 118°11'0 0.0
2018-Feb-19 21:25N 33°45' W 118°11'0 0.0
2018-Feb-19 20:55N 33°45' W 118°11'0 0.0
2018-Feb-19 20:30N 33°45' W 118°11'0 0.0
2018-Feb-19 20:00N 33°45' W 118°11'0 0.0
2018-Feb-19 19:30N 33°45' W 118°11'0 0.0
2018-Feb-19 19:00N 33°45' W 118°11'0 0.0
2018-Feb-19 18:30N 33°45' W 118°11'0 0.0
2018-Feb-19 17:56N 33°45' W 118°11'0 0.0
2018-Feb-19 17:29N 33°45' W 118°11'0 0.0
2018-Feb-19 16:59N 33°45' W 118°11'0 0.0
2018-Feb-19 16:29N 33°45' W 118°11'0 0.0
2018-Feb-19 15:58N 33°45' W 118°11'0 0.0
2018-Feb-19 15:28N 33°45' W 118°11'0 0.0
2018-Feb-19 14:58N 33°45' W 118°11'0 0.0
2018-Feb-19 14:19N 33°45' W 118°11'0 0.0
2018-Feb-19 14:00N 33°45' W 118°11'0 0.6
2018-Feb-19 13:31N 33°45' W 118°11'4 7.6
2018-Feb-19 13:00N 33°41' W 118°11'3 6.0
2018-Feb-19 12:30N 33°38' W 118°10'21 6.9
2018-Feb-19 09:27N 33°18' W 118°02'3 7.7
2018-Feb-19 09:00N 33°15' W 118°01'4 7.7
2018-Feb-19 08:28N 33°11' W 117°59'4 7.5
2018-Feb-19 07:57N 33°07' W 117°57'3 7.7
2018-Feb-19 07:30N 33°04' W 117°56'4 7.6
2018-Feb-19 07:00N 33°00' W 117°55'4 7.5
2018-Feb-19 06:30N 32°57' W 117°53'4 7.3
2018-Feb-19 06:00N 32°53' W 117°52'3460.8
2018-Feb-19 06:00N 32°54' W 117°48'4 8.6 270 / 301015.210.8 15.0 9.716.0
2018-Feb-19 05:30N 32°50' W 117°50'4 7.2
2018-Feb-19 05:00N 32°47' W 117°48'4 7.2
2018-Feb-19 04:30N 32°43' W 117°47'4 7.2
2018-Feb-19 04:00N 32°40' W 117°45'4 7.4
2018-Feb-19 03:30N 32°36' W 117°44'4 7.9
2018-Feb-19 02:59N 32°33' W 117°43'4 7.9
2018-Feb-19 02:30N 32°29' W 117°41'4 7.4
2018-Feb-19 02:00N 32°25' W 117°40'4 7.5
2018-Feb-19 01:30N 32°22' W 117°38'4 8.0
2018-Feb-19 00:59N 32°18' W 117°37'4 7.8
2018-Feb-19 00:30N 32°15' W 117°34'4 7.7
2018-Feb-19 00:00N 32°12' W 117°30'4 7.1
2018-Feb-18 23:30N 32°10' W 117°28'4 7.2
2018-Feb-18 23:00N 32°07' W 117°25'3 7.1
2018-Feb-18 22:30N 32°04' W 117°22'4 6.9
2018-Feb-18 21:58N 32°02' W 117°19'4 6.9
2018-Feb-18 21:26N 31°59' W 117°16'3 6.9
2018-Feb-18 21:00N 31°57' W 117°14'5 6.2
2018-Feb-18 20:12N 31°52' W 117°16'2 7.7
2018-Feb-18 19:58N 31°52' W 117°18'3 7.7
2018-Feb-18 19:30N 31°52' W 117°22'5 7.7
2018-Feb-18 18:51N 31°52' W 117°28'3 7.7
2018-Feb-18 18:25N 31°52' W 117°32'5 7.5
2018-Feb-18 17:47N 31°52' W 117°37'311.0
2018-Feb-18 17:30N 31°52' W 117°41'611.5
2018-Feb-18 17:00N 31°52' W 117°48'611.6
2018-Feb-18 16:30N 31°52' W 117°55'611.5
2018-Feb-18 16:00N 31°51' W 118°01'510.4
2018-Feb-18 15:30N 31°47' W 118°05'4 8.4
2018-Feb-18 15:00N 31°43' W 118°07'4 8.3
2018-Feb-18 14:30N 31°39' W 118°08'4 8.2
2018-Feb-18 14:00N 31°36' W 118°10'4 7.4
2018-Feb-18 13:30N 31°32' W 118°10'4 8.4
2018-Feb-18 12:59N 31°31' W 118°05'510.0
2018-Feb-18 12:30N 31°31' W 117°60'5 9.9
2018-Feb-18 11:59N 31°31' W 117°54'4 9.0
2018-Feb-18 11:30N 31°33' W 117°49'4 8.5
2018-Feb-18 11:00N 31°37' W 117°51'4 7.8
2018-Feb-18 10:30N 31°40' W 117°54'4 7.3
2018-Feb-18 09:58N 31°44' W 117°55'4 8.1
2018-Feb-18 09:30N 31°45' W 117°50'4 8.2
2018-Feb-18 09:00N 31°45' W 117°46'6 8.3
2018-Feb-18 08:18N 31°46' W 117°39'2 8.2
2018-Feb-18 08:00N 31°46' W 117°36'10 8.3
2018-Feb-18 06:50N 31°47' W 117°25'3 8.3
2018-Feb-18 06:29N 31°47' W 117°21'4 8.2
2018-Feb-18 06:00N 31°48' W 117°17'4 8.1
2018-Feb-18 05:30N 31°48' W 117°12'4 8.2
2018-Feb-18 05:00N 31°49' W 117°07'6412.5
2018-Feb-18 05:00N 31°48' W 117°00'1 2.4 330 / 101019.310.8 17.013.716.0
2018-Feb-18 04:26N 31°49' W 117°01'1110.1
2018-Feb-18 03:20N 31°50' W 116°47'11 0.8
2018-Feb-17 13:06N 31°56' W 116°58'111.9
2018-Feb-17 12:59N 31°57' W 116°59'611.8
2018-Feb-17 12:30N 31°59' W 117°05'611.4
2018-Feb-17 11:57N 32°02' W 117°12'511.5
2018-Feb-17 11:29N 32°05' W 117°17'611.6
2018-Feb-17 11:00N 32°08' W 117°22'611.7
2018-Feb-17 10:30N 32°12' W 117°28'611.6
2018-Feb-17 10:00N 32°16' W 117°33'612.0
2018-Feb-17 09:31N 32°21' W 117°36'612.0
2018-Feb-17 09:01N 32°26' W 117°39'612.0
2018-Feb-17 08:30N 32°32' W 117°43'611.9
2018-Feb-17 08:00N 32°37' W 117°46'611.9
2018-Feb-17 07:30N 32°42' W 117°49'611.1
2018-Feb-17 07:00N 32°48' W 117°50'612.3
2018-Feb-17 06:30N 32°54' W 117°53'612.1
2018-Feb-17 06:00N 32°59' W 117°56'611.9
2018-Feb-17 05:30N 33°04' W 117°58'611.8
2018-Feb-17 05:00N 33°10' W 118°01'611.9
2018-Feb-17 04:30N 33°15' W 118°04'611.9
2018-Feb-17 04:00N 33°21' W 118°07'611.8
2018-Feb-17 03:30N 33°26' W 118°09'611.8
2018-Feb-17 03:00N 33°32' W 118°12'611.3
2018-Feb-17 02:30N 33°37' W 118°13'510.5
2018-Feb-17 02:00N 33°43' W 118°11'2 4.6
2018-Feb-17 01:28N 33°45' W 118°11'0 0.0
2018-Feb-17 00:58N 33°45' W 118°11'0 0.0
2018-Feb-17 00:28N 33°45' W 118°11'0 0.0
2018-Feb-16 23:58N 33°45' W 118°11'0 0.0
2018-Feb-16 23:30N 33°45' W 118°11'0 0.0
2018-Feb-16 23:00N 33°45' W 118°11'0 0.0
2018-Feb-16 22:30N 33°45' W 118°11'0 0.0
2018-Feb-16 22:00N 33°45' W 118°11'0 0.0
2018-Feb-16 21:27N 33°45' W 118°11'0 0.0
2018-Feb-16 20:59N 33°45' W 118°11'0 0.0
2018-Feb-16 20:26N 33°45' W 118°11'0 0.0
2018-Feb-16 19:59N 33°45' W 118°11'0 0.0
2018-Feb-16 19:26N 33°45' W 118°11'0 0.0
2018-Feb-16 18:58N 33°45' W 118°11'0 0.0
2018-Feb-16 18:25N 33°45' W 118°11'0 0.0
2018-Feb-16 17:58N 33°45' W 118°11'0 0.0
2018-Feb-16 17:28N 33°45' W 118°11'0 0.0
2018-Feb-16 16:58N 33°45' W 118°11'0 0.0
2018-Feb-16 16:24N 33°45' W 118°11'0 0.0
2018-Feb-16 16:00N 33°45' W 118°11'0 0.0
2018-Feb-16 15:30N 33°45' W 118°11'0 0.0
2018-Feb-16 14:57N 33°45' W 118°11'0 0.0
2018-Feb-16 14:26N 33°45' W 118°11'0 0.0
2018-Feb-16 13:59N 33°45' W 118°11'0 0.0
2018-Feb-16 13:30N 33°45' W 118°11'0 1.0
2018-Feb-16 13:00N 33°45' W 118°11'4 8.7
2018-Feb-16 12:30N 33°40' W 118°11'5 9.1
2018-Feb-16 12:00N 33°36' W 118°10'4 7.4
2018-Feb-16 11:30N 33°32' W 118°08'4 7.3
2018-Feb-16 10:59N 33°29' W 118°07'4 7.3
2018-Feb-16 10:30N 33°25' W 118°05'5 7.0
2018-Feb-16 09:51N 33°21' W 118°03'3 7.5
2018-Feb-16 09:30N 33°19' W 118°02'4 7.7
2018-Feb-16 09:00N 33°15' W 118°01'4 7.6
2018-Feb-16 08:31N 33°11' W 117°59'4 7.6
2018-Feb-16 08:00N 33°08' W 117°58'4 8.0
2018-Feb-16 07:30N 33°04' W 117°56'4 8.4
2018-Feb-16 07:00N 33°00' W 117°54'4 8.3
2018-Feb-16 06:30N 32°56' W 117°53'4 8.1
2018-Feb-16 06:01N 32°52' W 117°51'4 8.0
2018-Feb-16 05:31N 32°49' W 117°49'4 8.2
2018-Feb-16 05:00N 32°45' W 117°48'4 8.3
2018-Feb-16 04:30N 32°41' W 117°46'4 8.3
2018-Feb-16 04:01N 32°37' W 117°44'4 8.2
2018-Feb-16 03:30N 32°33' W 117°43'4 8.2
2018-Feb-16 03:00N 32°29' W 117°42'4 8.0
2018-Feb-16 02:30N 32°25' W 117°40'4 8.0
2018-Feb-16 02:00N 32°22' W 117°39'4 7.9
2018-Feb-16 01:30N 32°18' W 117°37'4 8.0
2018-Feb-16 01:00N 32°15' W 117°34'4 8.0
2018-Feb-16 00:30N 32°12' W 117°30'4 7.7
2018-Feb-16 00:00N 32°09' W 117°27'4 7.5
2018-Feb-15 23:30N 32°06' W 117°24'4 7.5
2018-Feb-15 22:59N 32°04' W 117°21'4 7.5
2018-Feb-15 22:30N 32°01' W 117°18'19 0.5
2018-Feb-14 08:18N 32°14' W 117°36'3 9.3
2018-Feb-14 08:00N 32°16' W 117°37'5 9.3
2018-Feb-14 07:30N 32°20' W 117°40'5 9.4
2018-Feb-14 07:00N 32°24' W 117°42'5 9.4
2018-Feb-14 06:30N 32°29' W 117°45'510.6
2018-Feb-14 06:00N 32°33' W 117°48'510.6
2018-Feb-14 05:30N 32°38' W 117°50'510.6
2018-Feb-14 05:00N 32°43' W 117°53'510.6
2018-Feb-14 04:30N 32°48' W 117°56'510.5
2018-Feb-14 04:00N 32°52' W 117°59'510.3
2018-Feb-14 03:30N 32°57' W 118°02'510.4
2018-Feb-14 03:00N 33°01' W 118°05'510.3
2018-Feb-14 02:30N 33°06' W 118°07'710.3
2018-Feb-14 01:46N 33°13' W 118°11'310.3
2018-Feb-14 01:30N 33°15' W 118°12'510.2
2018-Feb-14 01:00N 33°19' W 118°17'3 0.3
2018-Feb-13 15:01N 33°21' W 118°19'2 5.2
2018-Feb-13 14:39N 33°20' W 118°17'1 7.3
2018-Feb-13 14:30N 33°19' W 118°17'4 7.2
2018-Feb-13 14:00N 33°15' W 118°16'4 6.7
2018-Feb-13 13:28N 33°12' W 118°16'9 7.3
2018-Feb-13 12:13N 33°03' W 118°12'4 7.5
2018-Feb-13 11:37N 32°59' W 118°09'1 7.6
2018-Feb-13 11:29N 32°59' W 118°09'4 7.4
2018-Feb-13 11:00N 32°56' W 118°06'9 7.4
2018-Feb-13 09:49N 32°49' W 117°60'2 7.1
2018-Feb-13 09:29N 32°47' W 117°58'3 6.8
2018-Feb-13 09:00N 32°48' W 117°54'4 7.1
2018-Feb-13 08:30N 32°52' W 117°55'4 7.3
2018-Feb-13 07:59N 32°55' W 117°56'3 7.1
2018-Feb-13 07:30N 32°59' W 117°58'4 7.1
2018-Feb-13 07:00N 33°02' W 117°59'4 7.2
2018-Feb-13 06:30N 33°05' W 118°00'4 7.2
2018-Feb-13 05:59N 33°09' W 118°02'3 7.2
2018-Feb-13 05:30N 33°12' W 118°03'4 8.2
2018-Feb-13 05:00N 33°16' W 118°05'2210.0
2018-Feb-13 02:49N 33°37' W 118°13'3 9.6
2018-Feb-13 02:30N 33°40' W 118°12'4 8.6
2018-Feb-13 02:00N 33°44' W 118°11'1 2.1
2018-Feb-13 01:28N 33°45' W 118°11'0 0.0
2018-Feb-13 01:01N 33°45' W 118°11'0 0.0
2018-Feb-13 00:30N 33°45' W 118°11'0 0.0
2018-Feb-13 00:00N 33°45' W 118°11'0 0.0
2018-Feb-12 23:30N 33°45' W 118°11'0 0.0
2018-Feb-12 22:57N 33°45' W 118°11'0 0.0
2018-Feb-12 22:29N 33°45' W 118°11'0 0.0
2018-Feb-12 21:56N 33°45' W 118°11'0 0.0
2018-Feb-12 21:29N 33°45' W 118°11'0 0.0
2018-Feb-12 20:56N 33°45' W 118°11'0 0.0
2018-Feb-12 20:29N 33°45' W 118°11'0 0.0
2018-Feb-12 19:58N 33°45' W 118°11'0 0.0
2018-Feb-12 19:28N 33°45' W 118°11'0 0.0
2018-Feb-12 18:58N 33°45' W 118°11'0 0.0
2018-Feb-12 18:28N 33°45' W 118°11'0 0.0
2018-Feb-12 18:01N 33°45' W 118°11'0 0.0
2018-Feb-12 17:30N 33°45' W 118°11'0 0.0
2018-Feb-12 17:00N 33°45' W 118°11'0 0.0
2018-Feb-12 16:30N 33°45' W 118°11'0 0.0
2018-Feb-12 16:00N 33°45' W 118°11'0 0.0
2018-Feb-12 15:17N 33°45' W 118°11'0 0.0
2018-Feb-12 14:59N 33°45' W 118°11'0 0.0
2018-Feb-12 14:26N 33°45' W 118°11'0 0.0
2018-Feb-12 13:59N 33°45' W 118°11'0 0.1
2018-Feb-12 13:30N 33°45' W 118°11'1 1.8
2018-Feb-12 13:00N 33°44' W 118°11'5 9.0
2018-Feb-12 12:30N 33°40' W 118°11'4 8.2
2018-Feb-12 12:00N 33°36' W 118°10'12 7.8
2018-Feb-12 10:31N 33°25' W 118°05'0 6.8
2018-Feb-12 10:29N 33°25' W 118°05'3 6.4
2018-Feb-12 10:00N 33°22' W 118°04'4 7.8
2018-Feb-12 09:30N 33°18' W 118°02'4 7.8
2018-Feb-12 09:00N 33°14' W 118°00'4 7.7
2018-Feb-12 08:30N 33°11' W 117°59'4 7.6
2018-Feb-12 08:00N 33°07' W 117°57'4 7.6
2018-Feb-12 07:30N 33°04' W 117°56'4 7.6
2018-Feb-12 07:00N 32°60' W 117°54'4 7.6
2018-Feb-12 06:30N 32°56' W 117°53'4 7.5
2018-Feb-12 06:00N 32°53' W 117°51'4 7.4
2018-Feb-12 05:30N 32°49' W 117°50'4 7.4
2018-Feb-12 05:00N 32°46' W 117°48'4 7.5
2018-Feb-12 04:30N 32°42' W 117°47'4 7.6
2018-Feb-12 04:00N 32°39' W 117°46'4 7.7
2018-Feb-12 03:30N 32°35' W 117°44'4 7.6
2018-Feb-12 03:00N 32°31' W 117°43'4 7.5
2018-Feb-12 02:28N 32°28' W 117°41'3 7.5
2018-Feb-12 02:00N 32°25' W 117°39'7 7.4
2018-Feb-12 01:06N 32°19' W 117°35'2 7.5
2018-Feb-12 00:52N 32°17' W 117°35'  
Track history (hours):
 
Tides and Currents Weather Stations Pressure Air Temp Water Temp Dewpoint Dewpoint Depression Visibility Wind Speed Wind Dir Waves Ship Positions

Inspiration

Operator: Carnival Cruise Lines

Last reported at 2018-Feb-21 13:35 UTC. Time now 2018-Feb-21 17:41 UTC.
Position N 33°11' W 118°16'.

Type: Ship. MMSI: 309484000.

Date/timePositionNaut miles runAvg speedWind from/ knotsBaromVisibWave heightAir tempDewpointWater temp
2018-Feb-21 13:35N 33°11' W 118°16'18 7.3
2018-Feb-21 11:08N 32°55' W 118°05'1 7.5
2018-Feb-21 10:56N 32°54' W 118°04'7 7.2
2018-Feb-21 10:01N 32°49' W 117°59'1 7.1
2018-Feb-21 09:56N 32°48' W 117°59'4 6.9
2018-Feb-21 09:19N 32°45' W 117°56'2 7.1
2018-Feb-21 09:00N 32°43' W 117°54'3 5.5
2018-Feb-21 08:30N 32°42' W 117°57'3 4.9
2018-Feb-21 07:57N 32°39' W 117°55'3 6.0
2018-Feb-21 07:30N 32°42' W 117°55'3 5.6
2018-Feb-21 07:00N 32°41' W 117°52'3 6.5
2018-Feb-21 06:30N 32°38' W 117°50'3 6.3
2018-Feb-21 06:00N 32°35' W 117°50'3 6.7
2018-Feb-21 05:30N 32°32' W 117°51'50 4.8
2018-Feb-20 19:00N 31°42' W 118°00'35 8.6 340 / 101013.210.8 11.0-0.216.0
2018-Feb-20 14:53N 32°17' W 117°55'3 7.0
2018-Feb-20 14:30N 32°19' W 117°54'4 6.9
2018-Feb-20 13:59N 32°23' W 117°52'3 6.8
2018-Feb-20 13:29N 32°26' W 117°51'3 6.9
2018-Feb-20 13:00N 32°29' W 117°50'3 6.9
2018-Feb-20 12:30N 32°32' W 117°49'3 6.8
2018-Feb-20 12:00N 32°36' W 117°48'6467.0
2018-Feb-20 12:00N 32°30' W 117°48'918.3 010 / 101012.010.8 12.0-2.015.0
2018-Feb-20 11:30N 32°39' W 117°48'4 6.9
2018-Feb-20 10:59N 32°42' W 117°49'3 7.0
2018-Feb-20 10:30N 32°45' W 117°51'3 6.9
2018-Feb-20 10:00N 32°49' W 117°52'4 7.2
2018-Feb-20 09:30N 32°52' W 117°54'4 7.2
2018-Feb-20 09:00N 32°55' W 117°55'4 7.0
2018-Feb-20 08:30N 32°59' W 117°57'3 6.9
2018-Feb-20 08:00N 33°02' W 117°58'3 6.9
2018-Feb-20 07:30N 33°05' W 117°59'4 6.8
2018-Feb-20 06:59N 33°08' W 118°01'3 6.6
2018-Feb-20 06:30N 33°11' W 118°02'3 6.7
2018-Feb-20 06:00N 33°14' W 118°04'3 6.8
2018-Feb-20 05:30N 33°18' W 118°05'8 6.9
2018-Feb-20 04:20N 33°25' W 118°09'2 6.9
2018-Feb-20 04:00N 33°27' W 118°10'10 8.0
2018-Feb-20 02:47N 33°37' W 118°13'310.0
2018-Feb-20 02:30N 33°39' W 118°12'4 8.7
2018-Feb-20 02:00N 33°44' W 118°11'1 2.7
2018-Feb-20 01:30N 33°45' W 118°11'0 0.0
2018-Feb-20 00:59N 33°45' W 118°11'0 0.0
2018-Feb-20 00:29N 33°45' W 118°11'0 0.0
2018-Feb-19 23:59N 33°45' W 118°11'0 0.0
2018-Feb-19 23:29N 33°45' W 118°11'0 0.0
2018-Feb-19 22:58N 33°45' W 118°11'0 0.0
2018-Feb-19 22:28N 33°45' W 118°11'0 0.0
2018-Feb-19 21:58N 33°45' W 118°11'0 0.0
2018-Feb-19 21:25N 33°45' W 118°11'0 0.0
2018-Feb-19 20:55N 33°45' W 118°11'0 0.0
2018-Feb-19 20:30N 33°45' W 118°11'0 0.0
2018-Feb-19 20:00N 33°45' W 118°11'0 0.0
2018-Feb-19 19:30N 33°45' W 118°11'0 0.0
2018-Feb-19 19:00N 33°45' W 118°11'0 0.0
2018-Feb-19 18:30N 33°45' W 118°11'0 0.0
2018-Feb-19 17:56N 33°45' W 118°11'0 0.0
2018-Feb-19 17:29N 33°45' W 118°11'0 0.0
2018-Feb-19 16:59N 33°45' W 118°11'0 0.0
2018-Feb-19 16:29N 33°45' W 118°11'0 0.0
2018-Feb-19 15:58N 33°45' W 118°11'0 0.0
2018-Feb-19 15:28N 33°45' W 118°11'0 0.0
2018-Feb-19 14:58N 33°45' W 118°11'0 0.0
2018-Feb-19 14:19N 33°45' W 118°11'0 0.0
2018-Feb-19 14:00N 33°45' W 118°11'0 0.6
2018-Feb-19 13:31N 33°45' W 118°11'4 7.6
2018-Feb-19 13:00N 33°41' W 118°11'3 6.0
2018-Feb-19 12:30N 33°38' W 118°10'21 6.9
2018-Feb-19 09:27N 33°18' W 118°02'3 7.7
2018-Feb-19 09:00N 33°15' W 118°01'4 7.7
2018-Feb-19 08:28N 33°11' W 117°59'4 7.5
2018-Feb-19 07:57N 33°07' W 117°57'3 7.7
2018-Feb-19 07:30N 33°04' W 117°56'4 7.6
2018-Feb-19 07:00N 33°00' W 117°55'4 7.5
2018-Feb-19 06:30N 32°57' W 117°53'4 7.3
2018-Feb-19 06:00N 32°53' W 117°52'3460.8
2018-Feb-19 06:00N 32°54' W 117°48'4 8.6 270 / 301015.210.8 15.0 9.716.0
2018-Feb-19 05:30N 32°50' W 117°50'4 7.2
2018-Feb-19 05:00N 32°47' W 117°48'4 7.2
2018-Feb-19 04:30N 32°43' W 117°47'4 7.2
2018-Feb-19 04:00N 32°40' W 117°45'4 7.4
2018-Feb-19 03:30N 32°36' W 117°44'4 7.9
2018-Feb-19 02:59N 32°33' W 117°43'4 7.9
2018-Feb-19 02:30N 32°29' W 117°41'4 7.4
2018-Feb-19 02:00N 32°25' W 117°40'4 7.5
2018-Feb-19 01:30N 32°22' W 117°38'4 8.0
2018-Feb-19 00:59N 32°18' W 117°37'4 7.8
2018-Feb-19 00:30N 32°15' W 117°34'4 7.7
2018-Feb-19 00:00N 32°12' W 117°30'4 7.1
2018-Feb-18 23:30N 32°10' W 117°28'4 7.2
2018-Feb-18 23:00N 32°07' W 117°25'3 7.1
2018-Feb-18 22:30N 32°04' W 117°22'4 6.9
2018-Feb-18 21:58N 32°02' W 117°19'4 6.9
2018-Feb-18 21:26N 31°59' W 117°16'3 6.9
2018-Feb-18 21:00N 31°57' W 117°14'5 6.2
2018-Feb-18 20:12N 31°52' W 117°16'2 7.7
2018-Feb-18 19:58N 31°52' W 117°18'3 7.7
2018-Feb-18 19:30N 31°52' W 117°22'5 7.7
2018-Feb-18 18:51N 31°52' W 117°28'3 7.7
2018-Feb-18 18:25N 31°52' W 117°32'5 7.5
2018-Feb-18 17:47N 31°52' W 117°37'311.0
2018-Feb-18 17:30N 31°52' W 117°41'611.5
2018-Feb-18 17:00N 31°52' W 117°48'611.6
2018-Feb-18 16:30N 31°52' W 117°55'611.5
2018-Feb-18 16:00N 31°51' W 118°01'510.4
2018-Feb-18 15:30N 31°47' W 118°05'4 8.4
2018-Feb-18 15:00N 31°43' W 118°07'4 8.3
2018-Feb-18 14:30N 31°39' W 118°08'4 8.2
2018-Feb-18 14:00N 31°36' W 118°10'4 7.4
2018-Feb-18 13:30N 31°32' W 118°10'4 8.4
2018-Feb-18 12:59N 31°31' W 118°05'510.0
2018-Feb-18 12:30N 31°31' W 117°60'5 9.9
2018-Feb-18 11:59N 31°31' W 117°54'4 9.0
2018-Feb-18 11:30N 31°33' W 117°49'4 8.5
2018-Feb-18 11:00N 31°37' W 117°51'4 7.8
2018-Feb-18 10:30N 31°40' W 117°54'4 7.3
2018-Feb-18 09:58N 31°44' W 117°55'4 8.1
2018-Feb-18 09:30N 31°45' W 117°50'4 8.2
2018-Feb-18 09:00N 31°45' W 117°46'6 8.3
2018-Feb-18 08:18N 31°46' W 117°39'2 8.2
2018-Feb-18 08:00N 31°46' W 117°36'10 8.3
2018-Feb-18 06:50N 31°47' W 117°25'3 8.3
2018-Feb-18 06:29N 31°47' W 117°21'4 8.2
2018-Feb-18 06:00N 31°48' W 117°17'4 8.1
2018-Feb-18 05:30N 31°48' W 117°12'4 8.2
2018-Feb-18 05:00N 31°49' W 117°07'6412.5
2018-Feb-18 05:00N 31°48' W 117°00'1 2.4 330 / 101019.310.8 17.013.716.0
2018-Feb-18 04:26N 31°49' W 117°01'1110.1
2018-Feb-18 03:20N 31°50' W 116°47'11 0.8
2018-Feb-17 13:06N 31°56' W 116°58'111.9
2018-Feb-17 12:59N 31°57' W 116°59'611.8
2018-Feb-17 12:30N 31°59' W 117°05'611.4
2018-Feb-17 11:57N 32°02' W 117°12'511.5
2018-Feb-17 11:29N 32°05' W 117°17'611.6
2018-Feb-17 11:00N 32°08' W 117°22'611.7
2018-Feb-17 10:30N 32°12' W 117°28'611.6
2018-Feb-17 10:00N 32°16' W 117°33'612.0
2018-Feb-17 09:31N 32°21' W 117°36'612.0
2018-Feb-17 09:01N 32°26' W 117°39'612.0
2018-Feb-17 08:30N 32°32' W 117°43'611.9
2018-Feb-17 08:00N 32°37' W 117°46'611.9
2018-Feb-17 07:30N 32°42' W 117°49'611.1
2018-Feb-17 07:00N 32°48' W 117°50'612.3
2018-Feb-17 06:30N 32°54' W 117°53'612.1
2018-Feb-17 06:00N 32°59' W 117°56'611.9
2018-Feb-17 05:30N 33°04' W 117°58'611.8
2018-Feb-17 05:00N 33°10' W 118°01'611.9
2018-Feb-17 04:30N 33°15' W 118°04'611.9
2018-Feb-17 04:00N 33°21' W 118°07'611.8
2018-Feb-17 03:30N 33°26' W 118°09'611.8
2018-Feb-17 03:00N 33°32' W 118°12'611.3
2018-Feb-17 02:30N 33°37' W 118°13'510.5
2018-Feb-17 02:00N 33°43' W 118°11'2 4.6
2018-Feb-17 01:28N 33°45' W 118°11'0 0.0
2018-Feb-17 00:58N 33°45' W 118°11'0 0.0
2018-Feb-17 00:28N 33°45' W 118°11'0 0.0
2018-Feb-16 23:58N 33°45' W 118°11'0 0.0
2018-Feb-16 23:30N 33°45' W 118°11'0 0.0
2018-Feb-16 23:00N 33°45' W 118°11'0 0.0
2018-Feb-16 22:30N 33°45' W 118°11'0 0.0
2018-Feb-16 22:00N 33°45' W 118°11'0 0.0
2018-Feb-16 21:27N 33°45' W 118°11'0 0.0
2018-Feb-16 20:59N 33°45' W 118°11'0 0.0
2018-Feb-16 20:26N 33°45' W 118°11'0 0.0
2018-Feb-16 19:59N 33°45' W 118°11'0 0.0
2018-Feb-16 19:26N 33°45' W 118°11'0 0.0
2018-Feb-16 18:58N 33°45' W 118°11'0 0.0
2018-Feb-16 18:25N 33°45' W 118°11'0 0.0
2018-Feb-16 17:58N 33°45' W 118°11'0 0.0
2018-Feb-16 17:28N 33°45' W 118°11'0 0.0
2018-Feb-16 16:58N 33°45' W 118°11'0 0.0
2018-Feb-16 16:24N 33°45' W 118°11'0 0.0
2018-Feb-16 16:00N 33°45' W 118°11'0 0.0
2018-Feb-16 15:30N 33°45' W 118°11'0 0.0
2018-Feb-16 14:57N 33°45' W 118°11'0 0.0
2018-Feb-16 14:26N 33°45' W 118°11'0 0.0
2018-Feb-16 13:59N 33°45' W 118°11'0 0.0
2018-Feb-16 13:30N 33°45' W 118°11'0 1.0
2018-Feb-16 13:00N 33°45' W 118°11'4 8.7
2018-Feb-16 12:30N 33°40' W 118°11'5 9.1
2018-Feb-16 12:00N 33°36' W 118°10'4 7.4
2018-Feb-16 11:30N 33°32' W 118°08'4 7.3
2018-Feb-16 10:59N 33°29' W 118°07'4 7.3
2018-Feb-16 10:30N 33°25' W 118°05'5 7.0
2018-Feb-16 09:51N 33°21' W 118°03'3 7.5
2018-Feb-16 09:30N 33°19' W 118°02'4 7.7
2018-Feb-16 09:00N 33°15' W 118°01'4 7.6
2018-Feb-16 08:31N 33°11' W 117°59'4 7.6
2018-Feb-16 08:00N 33°08' W 117°58'4 8.0
2018-Feb-16 07:30N 33°04' W 117°56'4 8.4
2018-Feb-16 07:00N 33°00' W 117°54'4 8.3
2018-Feb-16 06:30N 32°56' W 117°53'4 8.1
2018-Feb-16 06:01N 32°52' W 117°51'4 8.0
2018-Feb-16 05:31N 32°49' W 117°49'4 8.2
2018-Feb-16 05:00N 32°45' W 117°48'4 8.3
2018-Feb-16 04:30N 32°41' W 117°46'4 8.3
2018-Feb-16 04:01N 32°37' W 117°44'4 8.2
2018-Feb-16 03:30N 32°33' W 117°43'4 8.2
2018-Feb-16 03:00N 32°29' W 117°42'4 8.0
2018-Feb-16 02:30N 32°25' W 117°40'4 8.0
2018-Feb-16 02:00N 32°22' W 117°39'4 7.9
2018-Feb-16 01:30N 32°18' W 117°37'4 8.0
2018-Feb-16 01:00N 32°15' W 117°34'4 8.0
2018-Feb-16 00:30N 32°12' W 117°30'4 7.7
2018-Feb-16 00:00N 32°09' W 117°27'4 7.5
2018-Feb-15 23:30N 32°06' W 117°24'4 7.5
2018-Feb-15 22:59N 32°04' W 117°21'4 7.5
2018-Feb-15 22:30N 32°01' W 117°18'19 0.5
2018-Feb-14 08:18N 32°14' W 117°36'3 9.3
2018-Feb-14 08:00N 32°16' W 117°37'5 9.3
2018-Feb-14 07:30N 32°20' W 117°40'5 9.4
2018-Feb-14 07:00N 32°24' W 117°42'5 9.4
2018-Feb-14 06:30N 32°29' W 117°45'510.6
2018-Feb-14 06:00N 32°33' W 117°48'510.6
2018-Feb-14 05:30N 32°38' W 117°50'510.6
2018-Feb-14 05:00N 32°43' W 117°53'510.6
2018-Feb-14 04:30N 32°48' W 117°56'510.5
2018-Feb-14 04:00N 32°52' W 117°59'510.3
2018-Feb-14 03:30N 32°57' W 118°02'510.4
2018-Feb-14 03:00N 33°01' W 118°05'510.3
2018-Feb-14 02:30N 33°06' W 118°07'710.3
2018-Feb-14 01:46N 33°13' W 118°11'310.3
2018-Feb-14 01:30N 33°15' W 118°12'510.2
2018-Feb-14 01:00N 33°19' W 118°17'3 0.3
2018-Feb-13 15:01N 33°21' W 118°19'2 5.2
2018-Feb-13 14:39N 33°20' W 118°17'1 7.3
2018-Feb-13 14:30N 33°19' W 118°17'4 7.2
2018-Feb-13 14:00N 33°15' W 118°16'4 6.7
2018-Feb-13 13:28N 33°12' W 118°16'9 7.3
2018-Feb-13 12:13N 33°03' W 118°12'4 7.5
2018-Feb-13 11:37N 32°59' W 118°09'1 7.6
2018-Feb-13 11:29N 32°59' W 118°09'4 7.4
2018-Feb-13 11:00N 32°56' W 118°06'9 7.4
2018-Feb-13 09:49N 32°49' W 117°60'2 7.1
2018-Feb-13 09:29N 32°47' W 117°58'3 6.8
2018-Feb-13 09:00N 32°48' W 117°54'4 7.1
2018-Feb-13 08:30N 32°52' W 117°55'4 7.3
2018-Feb-13 07:59N 32°55' W 117°56'3 7.1
2018-Feb-13 07:30N 32°59' W 117°58'4 7.1
2018-Feb-13 07:00N 33°02' W 117°59'4 7.2
2018-Feb-13 06:30N 33°05' W 118°00'4 7.2
2018-Feb-13 05:59N 33°09' W 118°02'3 7.2
2018-Feb-13 05:30N 33°12' W 118°03'4 8.2
2018-Feb-13 05:00N 33°16' W 118°05'2210.0
2018-Feb-13 02:49N 33°37' W 118°13'3 9.6
2018-Feb-13 02:30N 33°40' W 118°12'4 8.6
2018-Feb-13 02:00N 33°44' W 118°11'1 2.1
2018-Feb-13 01:28N 33°45' W 118°11'0 0.0
2018-Feb-13 01:01N 33°45' W 118°11'0 0.0
2018-Feb-13 00:30N 33°45' W 118°11'0 0.0
2018-Feb-13 00:00N 33°45' W 118°11'0 0.0
2018-Feb-12 23:30N 33°45' W 118°11'0 0.0
2018-Feb-12 22:57N 33°45' W 118°11'0 0.0
2018-Feb-12 22:29N 33°45' W 118°11'0 0.0
2018-Feb-12 21:56N 33°45' W 118°11'0 0.0
2018-Feb-12 21:29N 33°45' W 118°11'0 0.0
2018-Feb-12 20:56N 33°45' W 118°11'0 0.0
2018-Feb-12 20:29N 33°45' W 118°11'0 0.0
2018-Feb-12 19:58N 33°45' W 118°11'0 0.0
2018-Feb-12 19:28N 33°45' W 118°11'0 0.0
2018-Feb-12 18:58N 33°45' W 118°11'0 0.0
2018-Feb-12 18:28N 33°45' W 118°11'0 0.0
2018-Feb-12 18:01N 33°45' W 118°11'0 0.0
2018-Feb-12 17:30N 33°45' W 118°11'0 0.0
2018-Feb-12 17:00N 33°45' W 118°11'0 0.0
2018-Feb-12 16:30N 33°45' W 118°11'0 0.0
2018-Feb-12 16:00N 33°45' W 118°11'0 0.0
2018-Feb-12 15:17N 33°45' W 118°11'0 0.0
2018-Feb-12 14:59N 33°45' W 118°11'0 0.0
2018-Feb-12 14:26N 33°45' W 118°11'0 0.0
2018-Feb-12 13:59N 33°45' W 118°11'0 0.1
2018-Feb-12 13:30N 33°45' W 118°11'1 1.8
2018-Feb-12 13:00N 33°44' W 118°11'5 9.0
2018-Feb-12 12:30N 33°40' W 118°11'4 8.2
2018-Feb-12 12:00N 33°36' W 118°10'12 7.8
2018-Feb-12 10:31N 33°25' W 118°05'0 6.8
2018-Feb-12 10:29N 33°25' W 118°05'3 6.4
2018-Feb-12 10:00N 33°22' W 118°04'4 7.8
2018-Feb-12 09:30N 33°18' W 118°02'4 7.8
2018-Feb-12 09:00N 33°14' W 118°00'4 7.7
2018-Feb-12 08:30N 33°11' W 117°59'4 7.6
2018-Feb-12 08:00N 33°07' W 117°57'4 7.6
2018-Feb-12 07:30N 33°04' W 117°56'4 7.6
2018-Feb-12 07:00N 32°60' W 117°54'4 7.6
2018-Feb-12 06:30N 32°56' W 117°53'4 7.5
2018-Feb-12 06:00N 32°53' W 117°51'4 7.4
2018-Feb-12 05:30N 32°49' W 117°50'4 7.4
2018-Feb-12 05:00N 32°46' W 117°48'4 7.5
2018-Feb-12 04:30N 32°42' W 117°47'4 7.6
2018-Feb-12 04:00N 32°39' W 117°46'4 7.7
2018-Feb-12 03:30N 32°35' W 117°44'4 7.6
2018-Feb-12 03:00N 32°31' W 117°43'4 7.5
2018-Feb-12 02:28N 32°28' W 117°41'3 7.5
2018-Feb-12 02:00N 32°25' W 117°39'7 7.4
2018-Feb-12 01:06N 32°19' W 117°35'2 7.5
2018-Feb-12 00:52N 32°17' W 117°35'  

Dump ship's entire track history